createdAt,value
2022-12-18T00:01:25.421Z,95.90
2022-12-18T00:03:54.364Z,95.80
2022-12-18T00:06:22.475Z,95.80
2022-12-18T00:08:49.781Z,95.80
2022-12-18T00:11:19.997Z,95.90
2022-12-18T00:13:47.437Z,95.80
2022-12-18T00:16:21.657Z,95.80
2022-12-18T00:18:50.730Z,94.20
2022-12-18T00:21:18.283Z,82.70
2022-12-18T00:23:46.288Z,78.30
2022-12-18T00:26:16.208Z,67.20
2022-12-18T00:28:44.123Z,75.10
2022-12-18T00:31:14.666Z,87.90
2022-12-18T00:33:42.240Z,90.90
2022-12-18T00:36:18.956Z,91.90
2022-12-18T00:38:46.780Z,91.00
2022-12-18T00:41:35.768Z,90.50
2022-12-18T00:44:03.659Z,90.20
2022-12-18T00:46:31.240Z,90.20
2022-12-18T00:48:58.428Z,90.20
2022-12-18T00:51:27.448Z,90.30
2022-12-18T00:53:54.729Z,90.40
2022-12-18T00:56:22.021Z,90.50
2022-12-18T00:58:49.556Z,90.80
2022-12-18T01:01:17.400Z,90.90
2022-12-18T01:03:46.164Z,91.10
2022-12-18T01:06:14.928Z,91.30
2022-12-18T01:08:42.316Z,91.50
2022-12-18T01:11:14.742Z,91.60
2022-12-18T01:13:42.307Z,91.90
2022-12-18T01:16:11.930Z,92.00
2022-12-18T01:18:39.360Z,91.80
2022-12-18T01:21:11.189Z,91.90
2022-12-18T01:23:39.052Z,92.10
2022-12-18T01:26:11.957Z,92.20
2022-12-18T01:28:39.186Z,92.40
2022-12-18T01:31:28.555Z,92.40
2022-12-18T01:33:56.582Z,92.50
2022-12-18T01:36:35.337Z,92.50
2022-12-18T01:39:05.673Z,92.50
2022-12-18T01:41:53.353Z,92.60
2022-12-18T01:44:51.485Z,92.60
2022-12-18T01:47:28.533Z,92.60
2022-12-18T01:49:57.897Z,92.70
2022-12-18T01:52:27.260Z,92.80
2022-12-18T01:54:55.526Z,92.80
2022-12-18T01:57:23.995Z,92.80
2022-12-18T01:59:54.653Z,93.00
2022-12-18T02:02:22.347Z,93.30
2022-12-18T02:04:49.834Z,93.30
2022-12-18T02:07:43.246Z,93.30
2022-12-18T02:10:28.234Z,93.40
2022-12-18T02:13:14.474Z,93.60
2022-12-18T02:16:03.869Z,93.50
2022-12-18T02:18:36.658Z,93.60
2022-12-18T02:21:23.138Z,93.60
2022-12-18T02:24:32.854Z,93.70
2022-12-18T02:27:06.886Z,93.70
2022-12-18T02:29:44.652Z,93.80
2022-12-18T02:32:17.507Z,93.80
2022-12-18T02:34:46.986Z,93.80
2022-12-18T02:37:18.572Z,93.80
2022-12-18T02:39:49.107Z,93.90
2022-12-18T02:42:17.562Z,93.90
2022-12-18T02:44:50.179Z,93.90
2022-12-18T02:47:21.196Z,93.90
2022-12-18T02:50:10.754Z,93.90
2022-12-18T02:52:43.991Z,93.90
2022-12-18T02:55:27.150Z,93.90
2022-12-18T02:57:59.415Z,93.90
2022-12-18T03:00:43.805Z,93.90
2022-12-18T03:03:15.672Z,93.90
2022-12-18T03:05:46.787Z,93.90
2022-12-18T03:08:20.135Z,93.90
2022-12-18T03:10:53.561Z,93.90
2022-12-18T03:13:32.901Z,93.90
2022-12-18T03:16:01.334Z,93.90
2022-12-18T03:18:37.907Z,93.90
2022-12-18T03:21:08.752Z,93.90
2022-12-18T03:23:45.847Z,93.90
2022-12-18T03:26:18.259Z,94.00
2022-12-18T03:28:51.048Z,94.00
2022-12-18T03:31:21.291Z,94.10
2022-12-18T03:33:56.836Z,94.30
2022-12-18T03:36:24.632Z,94.40
2022-12-18T03:38:52.280Z,94.50
2022-12-18T03:41:33.627Z,94.60
2022-12-18T03:44:12.606Z,94.60
2022-12-18T03:46:58.092Z,94.90
2022-12-18T03:49:37.440Z,94.90
2022-12-18T03:52:17.720Z,95.10
2022-12-18T03:54:46.464Z,95.10
2022-12-18T03:57:23.388Z,95.00
2022-12-18T03:59:58.304Z,95.00
2022-12-18T04:02:26.195Z,95.10
2022-12-18T04:04:57.677Z,95.10
2022-12-18T04:07:25.541Z,95.10
2022-12-18T04:09:57.420Z,95.20
2022-12-18T04:12:29.785Z,95.30
2022-12-18T04:14:56.915Z,95.30
2022-12-18T04:17:24.703Z,95.40
2022-12-18T04:19:51.769Z,95.40
2022-12-18T04:22:18.877Z,95.40
2022-12-18T04:24:45.943Z,95.50
2022-12-18T04:27:13.426Z,95.50
2022-12-18T04:29:40.649Z,95.50
2022-12-18T04:32:08.569Z,95.60
2022-12-18T04:34:35.629Z,95.50
2022-12-18T04:37:02.865Z,95.50
2022-12-18T04:39:29.915Z,95.50
2022-12-18T04:41:57.019Z,95.50
2022-12-18T04:44:24.262Z,95.50
2022-12-18T04:46:51.349Z,95.50
2022-12-18T04:49:18.489Z,95.40
2022-12-18T04:51:45.513Z,95.40
2022-12-18T04:54:12.567Z,95.30
2022-12-18T04:56:39.806Z,95.30
2022-12-18T04:59:06.947Z,95.60
2022-12-18T05:01:35.650Z,95.70
2022-12-18T05:04:03.728Z,95.70
2022-12-18T05:06:30.846Z,95.70
2022-12-18T05:08:58.317Z,95.70
2022-12-18T05:11:25.384Z,95.70
2022-12-18T05:13:52.448Z,95.60
2022-12-18T05:16:19.664Z,95.60
2022-12-18T05:18:46.824Z,95.70
2022-12-18T05:21:13.894Z,95.50
2022-12-18T05:23:41.277Z,95.40
2022-12-18T05:26:09.794Z,95.30
2022-12-18T05:28:37.327Z,95.30
2022-12-18T05:31:05.586Z,95.30
2022-12-18T05:33:34.955Z,95.30
2022-12-18T05:36:03.558Z,95.40
2022-12-18T05:38:32.423Z,95.60
2022-12-18T05:40:59.808Z,95.60
2022-12-18T05:43:28.091Z,95.70
2022-12-18T05:45:55.490Z,95.80
2022-12-18T05:48:22.899Z,95.70
2022-12-18T05:50:51.142Z,95.80
2022-12-18T05:53:20.228Z,95.90
2022-12-18T05:55:47.472Z,96.20
2022-12-18T05:58:15.243Z,96.00
2022-12-18T06:00:45.068Z,95.90
2022-12-18T06:03:12.899Z,95.80
2022-12-18T06:05:45.681Z,95.80
2022-12-18T06:08:14.050Z,95.90
2022-12-18T06:10:41.965Z,95.90
2022-12-18T06:13:09.523Z,95.90
2022-12-18T06:15:39.829Z,95.90
2022-12-18T06:18:06.907Z,95.90
2022-12-18T06:20:34.553Z,95.90
2022-12-18T06:23:01.663Z,95.90
2022-12-18T06:25:28.728Z,95.80
2022-12-18T06:27:55.799Z,95.80
2022-12-18T06:30:23.096Z,95.80
2022-12-18T06:32:56.324Z,96.10
2022-12-18T06:35:27.007Z,96.20
2022-12-18T06:37:54.040Z,96.10
2022-12-18T06:40:21.425Z,96.20
2022-12-18T06:42:48.502Z,96.10
2022-12-18T06:45:15.701Z,96.10
2022-12-18T06:47:42.782Z,96.10
2022-12-18T06:50:10.249Z,96.40
2022-12-18T06:52:37.754Z,96.10
2022-12-18T06:55:05.543Z,96.20
2022-12-18T06:57:32.609Z,96.10
2022-12-18T06:59:59.653Z,96.10
2022-12-18T07:02:26.816Z,96.10
2022-12-18T07:04:53.909Z,96.10
2022-12-18T07:07:20.957Z,96.10
2022-12-18T07:09:48.019Z,96.10
2022-12-18T07:12:15.093Z,96.10
2022-12-18T07:14:42.165Z,96.10
2022-12-18T07:17:09.351Z,96.10
2022-12-18T07:19:36.530Z,96.00
2022-12-18T07:22:03.599Z,96.00
2022-12-18T07:24:33.041Z,95.90
2022-12-18T07:27:00.089Z,95.90
2022-12-18T07:29:27.193Z,95.80
2022-12-18T07:31:54.356Z,95.80
2022-12-18T07:34:21.529Z,95.80
2022-12-18T07:36:48.651Z,95.70
2022-12-18T07:39:15.766Z,95.70
2022-12-18T07:41:47.381Z,95.70
2022-12-18T07:44:14.715Z,95.70
2022-12-18T07:46:41.801Z,95.70
2022-12-18T07:49:08.938Z,95.70
2022-12-18T07:51:35.986Z,95.70
2022-12-18T07:54:03.059Z,95.70
2022-12-18T07:56:31.443Z,95.70
2022-12-18T07:58:59.743Z,95.70
2022-12-18T08:01:27.933Z,95.70
2022-12-18T08:03:55.234Z,95.70
2022-12-18T08:06:24.124Z,95.70
2022-12-18T08:08:56.433Z,95.70
2022-12-18T08:11:26.434Z,95.70
2022-12-18T08:13:53.607Z,95.70
2022-12-18T08:16:21.658Z,95.70
2022-12-18T08:18:49.516Z,95.70
2022-12-18T08:21:25.668Z,95.50
2022-12-18T08:23:54.571Z,95.60
2022-12-18T08:26:22.644Z,95.50
2022-12-18T08:28:51.160Z,92.40
2022-12-18T08:31:19.531Z,77.50
2022-12-18T08:33:50.277Z,76.40
2022-12-18T08:36:18.039Z,80.80
2022-12-18T08:38:45.075Z,86.90
2022-12-18T08:41:13.871Z,88.70
2022-12-18T08:44:00.041Z,90.00
2022-12-18T08:46:32.159Z,90.40
2022-12-18T08:48:59.321Z,90.50
2022-12-18T08:51:26.579Z,90.80
2022-12-18T08:53:53.651Z,91.00
2022-12-18T08:56:20.722Z,91.20
2022-12-18T08:58:47.781Z,91.60
2022-12-18T09:01:15.114Z,91.50
2022-12-18T09:03:42.834Z,92.10
2022-12-18T09:06:10.275Z,92.00
2022-12-18T09:08:40.487Z,92.10
2022-12-18T09:11:26.698Z,92.30
2022-12-18T09:13:56.105Z,92.30
2022-12-18T09:16:30.319Z,92.40
2022-12-18T09:19:02.810Z,92.50
2022-12-18T09:21:34.792Z,92.70
2022-12-18T09:24:04.346Z,92.80
2022-12-18T09:26:32.337Z,92.90
2022-12-18T09:28:59.377Z,92.90
2022-12-18T09:31:26.577Z,93.00
2022-12-18T09:33:55.334Z,93.10
2022-12-18T09:36:22.379Z,93.10
2022-12-18T09:38:49.417Z,93.40
2022-12-18T09:41:54.437Z,93.30
2022-12-18T09:44:28.741Z,93.40
2022-12-18T09:47:13.955Z,93.50
2022-12-18T09:49:46.501Z,93.50
2022-12-18T09:52:31.402Z,93.70
2022-12-18T09:55:11.629Z,93.70
2022-12-18T09:57:46.106Z,93.70
2022-12-18T10:00:19.958Z,93.90
2022-12-18T10:02:47.841Z,93.80
2022-12-18T10:05:18.438Z,93.90
2022-12-18T10:07:58.274Z,94.00
2022-12-18T10:10:31.522Z,94.10
2022-12-18T10:13:16.512Z,94.10
2022-12-18T10:15:53.025Z,94.10
2022-12-18T10:18:29.370Z,94.20
2022-12-18T10:21:04.636Z,94.50
2022-12-18T10:23:48.199Z,94.50
2022-12-18T10:26:15.762Z,94.60
2022-12-18T10:28:45.197Z,94.70
2022-12-18T10:31:21.163Z,94.70
2022-12-18T10:33:54.575Z,94.80
2022-12-18T10:36:24.805Z,94.80
2022-12-18T10:38:52.713Z,94.90
2022-12-18T10:41:20.026Z,94.90
2022-12-18T10:43:49.355Z,95.00
2022-12-18T10:46:21.868Z,95.00
2022-12-18T10:48:53.800Z,95.10
2022-12-18T10:51:34.459Z,95.10
2022-12-18T10:54:16.833Z,95.10
2022-12-18T10:56:44.838Z,95.10
2022-12-18T10:59:16.246Z,95.10
2022-12-18T11:01:58.681Z,95.20
2022-12-18T11:04:31.939Z,95.20
2022-12-18T11:07:09.404Z,95.20
2022-12-18T11:09:38.040Z,95.20
2022-12-18T11:12:17.711Z,95.30
2022-12-18T11:14:51.347Z,95.30
2022-12-18T11:17:31.410Z,95.30
2022-12-18T11:20:00.857Z,95.40
2022-12-18T11:22:30.372Z,95.40
2022-12-18T11:25:33.509Z,95.50
2022-12-18T11:28:05.900Z,95.50
2022-12-18T11:30:35.556Z,95.50
2022-12-18T11:33:22.656Z,95.40
2022-12-18T11:35:53.757Z,95.50
2022-12-18T11:38:27.039Z,95.60
2022-12-18T11:41:06.143Z,95.60
2022-12-18T11:43:45.040Z,95.70
2022-12-18T11:46:19.986Z,95.50
2022-12-18T11:48:57.804Z,95.50
2022-12-18T11:51:44.292Z,95.80
2022-12-18T11:54:15.155Z,95.90
2022-12-18T11:57:17.333Z,96.10
2022-12-18T12:00:02.338Z,96.40
2022-12-18T12:02:53.379Z,96.60
2022-12-18T12:05:32.018Z,96.80
2022-12-18T12:08:23.980Z,97.00
2022-12-18T12:11:04.401Z,97.80
2022-12-18T12:13:49.708Z,97.20
2022-12-18T12:16:32.447Z,96.90
2022-12-18T12:19:16.505Z,95.80
2022-12-18T12:21:54.641Z,95.60
2022-12-18T12:24:50.460Z,96.00
2022-12-18T12:27:43.856Z,96.30
2022-12-18T12:30:22.104Z,96.20
2022-12-18T12:32:57.173Z,96.20
2022-12-18T12:36:07.949Z,95.80
2022-12-18T12:38:45.660Z,89.00
2022-12-18T12:41:49.117Z,82.20
2022-12-18T12:44:23.047Z,88.60
2022-12-18T12:46:56.057Z,91.00
2022-12-18T12:49:29.710Z,91.20
2022-12-18T12:52:04.492Z,91.40
2022-12-18T12:54:33.655Z,91.10
2022-12-18T12:57:10.462Z,93.90
2022-12-18T12:59:50.927Z,77.40
2022-12-18T13:02:32.219Z,70.50
2022-12-18T13:05:04.681Z,76.80
2022-12-18T13:07:42.573Z,82.40
2022-12-18T13:10:20.598Z,87.30
2022-12-18T13:12:56.575Z,89.20
2022-12-18T13:15:27.129Z,90.20
2022-12-18T13:18:21.517Z,90.40
2022-12-18T13:21:19.792Z,90.90
2022-12-18T13:23:47.270Z,91.40
2022-12-18T13:26:17.171Z,90.90
2022-12-18T13:28:47.015Z,90.90
2022-12-18T13:31:42.550Z,91.70
2022-12-18T13:34:27.442Z,68.00
2022-12-18T13:37:17.566Z,61.70
2022-12-18T13:39:44.842Z,63.40
2022-12-18T13:42:31.912Z,74.00
2022-12-18T13:44:59.234Z,81.30
2022-12-18T13:47:41.123Z,74.50
2022-12-18T13:50:27.716Z,74.20
2022-12-18T13:52:59.675Z,76.30
2022-12-18T13:55:27.496Z,77.20
2022-12-18T13:58:05.953Z,77.90
2022-12-18T14:00:33.105Z,80.10
2022-12-18T14:03:01.422Z,80.20
2022-12-18T14:05:32.339Z,82.70
2022-12-18T14:08:07.048Z,82.60
2022-12-18T14:10:48.399Z,80.90
2022-12-18T14:13:28.993Z,81.70
2022-12-18T14:15:57.784Z,82.70
2022-12-18T14:18:55.317Z,80.20
2022-12-18T14:21:27.714Z,81.10
2022-12-18T14:24:19.689Z,80.50
2022-12-18T14:26:50.510Z,81.40
2022-12-18T14:29:31.750Z,82.20
2022-12-18T14:32:16.544Z,82.90
2022-12-18T14:34:55.047Z,83.20
2022-12-18T14:37:27.881Z,84.00
2022-12-18T14:40:10.662Z,85.10
2022-12-18T14:42:38.641Z,85.00
2022-12-18T14:45:43.134Z,85.70
2022-12-18T14:48:35.572Z,86.00
2022-12-18T14:51:11.668Z,87.00
2022-12-18T14:53:44.527Z,87.80
2022-12-18T14:56:21.373Z,88.30
2022-12-18T14:59:01.708Z,88.60
2022-12-18T15:01:38.369Z,89.10
2022-12-18T15:04:23.318Z,89.50
2022-12-18T15:07:05.577Z,89.90
2022-12-18T15:09:32.785Z,89.80
2022-12-18T15:12:02.081Z,90.10
2022-12-18T15:14:40.977Z,90.20
2022-12-18T15:17:20.694Z,90.40
2022-12-18T15:19:49.915Z,90.50
2022-12-18T15:22:21.505Z,90.60
2022-12-18T15:24:50.163Z,90.80
2022-12-18T15:27:25.258Z,90.90
2022-12-18T15:30:01.722Z,91.00
2022-12-18T15:32:28.759Z,91.10
2022-12-18T15:35:16.785Z,91.30
2022-12-18T15:37:44.510Z,91.30
2022-12-18T15:40:17.447Z,91.30
2022-12-18T15:43:03.895Z,91.30
2022-12-18T15:45:31.057Z,91.40
2022-12-18T15:47:58.223Z,91.50
2022-12-18T15:50:26.010Z,91.60
2022-12-18T15:52:56.359Z,91.60
2022-12-18T15:55:43.831Z,91.60
2022-12-18T15:58:12.949Z,91.60
2022-12-18T16:00:41.610Z,91.60
2022-12-18T16:03:10.689Z,91.70
2022-12-18T16:05:38.035Z,91.70
2022-12-18T16:08:05.168Z,91.80
2022-12-18T16:10:32.283Z,91.80
2022-12-18T16:12:59.407Z,91.80
2022-12-18T16:15:26.512Z,91.90
2022-12-18T16:17:53.683Z,92.00
2022-12-18T16:20:22.708Z,92.20
2022-12-18T16:22:50.565Z,92.30
2022-12-18T16:25:27.687Z,92.30
2022-12-18T16:27:56.135Z,92.40
2022-12-18T16:30:27.207Z,92.50
2022-12-18T16:32:56.043Z,92.50
2022-12-18T16:35:25.685Z,92.50
2022-12-18T16:37:53.108Z,92.60
2022-12-18T16:40:20.576Z,92.50
2022-12-18T16:42:47.667Z,92.60
2022-12-18T16:45:17.227Z,92.50
2022-12-18T16:47:44.860Z,92.60
2022-12-18T16:50:12.604Z,92.60
2022-12-18T16:52:40.079Z,92.70
2022-12-18T16:55:07.886Z,92.70
2022-12-18T16:57:35.011Z,92.80
2022-12-18T17:00:05.689Z,93.10
2022-12-18T17:02:33.492Z,93.10
2022-12-18T17:05:00.861Z,92.90
2022-12-18T17:07:28.760Z,92.90
2022-12-18T17:09:56.187Z,92.90
2022-12-18T17:12:23.909Z,93.20
2022-12-18T17:14:50.993Z,93.50
2022-12-18T17:17:21.776Z,93.50
2022-12-18T17:19:51.104Z,93.50
2022-12-18T17:22:18.684Z,93.50
2022-12-18T17:24:47.126Z,93.50
2022-12-18T17:27:14.379Z,93.50
2022-12-18T17:29:47.345Z,93.50
2022-12-18T17:32:17.074Z,93.60
2022-12-18T17:34:44.215Z,93.70
2022-12-18T17:37:11.348Z,93.80
2022-12-18T17:39:38.819Z,94.00
2022-12-18T17:42:06.703Z,94.00
2022-12-18T17:44:35.049Z,94.10
2022-12-18T17:47:02.831Z,94.10
2022-12-18T17:49:30.919Z,94.10
2022-12-18T17:51:57.960Z,94.20
2022-12-18T17:54:25.013Z,94.10
2022-12-18T17:56:52.065Z,94.10
2022-12-18T17:59:19.132Z,94.20
2022-12-18T18:01:46.469Z,94.30
2022-12-18T18:04:14.566Z,94.30
2022-12-18T18:06:41.744Z,94.30
2022-12-18T18:09:15.934Z,94.30
2022-12-18T18:12:05.390Z,94.30
2022-12-18T18:14:32.981Z,94.30
2022-12-18T18:17:04.706Z,94.50
2022-12-18T18:19:33.401Z,94.40
2022-12-18T18:22:01.363Z,94.40
2022-12-18T18:24:28.482Z,94.40
2022-12-18T18:26:55.643Z,94.40
2022-12-18T18:29:26.642Z,94.40
2022-12-18T18:31:54.927Z,94.40
2022-12-18T18:34:24.571Z,94.40
2022-12-18T18:36:51.869Z,94.40
2022-12-18T18:39:19.484Z,94.50
2022-12-18T18:41:47.868Z,94.50
2022-12-18T18:44:16.862Z,94.60
2022-12-18T18:46:44.561Z,94.70
2022-12-18T18:49:13.522Z,94.60
2022-12-18T18:51:41.507Z,94.60
2022-12-18T18:54:09.263Z,94.70
2022-12-18T18:59:31.198Z,94.90
2022-12-18T19:02:04.017Z,95.00
2022-12-18T19:04:33.622Z,95.00
2022-12-18T19:07:01.069Z,95.10
2022-12-18T19:09:28.602Z,95.20
2022-12-18T19:12:14.913Z,95.20
2022-12-18T19:14:42.699Z,95.40
2022-12-18T19:17:10.344Z,95.30
2022-12-18T19:19:37.576Z,95.30
2022-12-18T19:22:07.669Z,95.30
2022-12-18T19:24:35.975Z,95.40
2022-12-18T19:27:03.091Z,95.40
2022-12-18T19:29:30.283Z,95.40
2022-12-18T19:31:57.576Z,95.40
2022-12-18T19:34:24.740Z,95.30
2022-12-18T19:36:56.512Z,95.30
2022-12-18T19:39:26.633Z,95.40
2022-12-18T19:41:53.705Z,95.40
2022-12-18T19:44:21.332Z,95.40
2022-12-18T19:46:51.388Z,95.40
2022-12-18T19:49:21.248Z,95.40
2022-12-18T19:51:50.448Z,95.40
2022-12-18T19:54:17.966Z,95.50
2022-12-18T19:56:45.940Z,95.40
2022-12-18T19:59:13.975Z,95.40
2022-12-18T20:01:41.392Z,95.40
2022-12-18T20:04:09.190Z,95.40
2022-12-18T20:06:47.703Z,95.40
2022-12-18T20:09:14.893Z,95.40
2022-12-18T20:11:42.709Z,95.40
2022-12-18T20:14:12.012Z,95.40
2022-12-18T20:16:39.941Z,95.40
2022-12-18T20:19:07.665Z,95.40
2022-12-18T20:21:34.937Z,95.40
2022-12-18T20:24:02.097Z,95.40
2022-12-18T20:26:29.415Z,95.50
2022-12-18T20:28:56.683Z,95.40
2022-12-18T20:31:24.340Z,95.50
2022-12-18T20:33:53.332Z,95.40
2022-12-18T20:36:25.969Z,95.40
2022-12-18T20:38:56.991Z,95.40
2022-12-18T20:41:25.409Z,95.40
2022-12-18T20:43:52.477Z,95.30
2022-12-18T20:46:20.357Z,95.30
2022-12-18T20:48:48.117Z,95.30
2022-12-18T20:51:17.939Z,95.30
2022-12-18T20:53:46.467Z,95.20
2022-12-18T20:56:18.900Z,95.20
2022-12-18T20:58:50.541Z,95.20
2022-12-18T21:01:23.229Z,95.20
2022-12-18T21:03:51.350Z,95.30
2022-12-18T21:06:20.633Z,95.30
2022-12-18T21:08:48.503Z,95.30
2022-12-18T21:11:44.349Z,95.20
2022-12-18T21:14:17.845Z,95.20
2022-12-18T21:16:45.522Z,95.20
2022-12-18T21:19:16.159Z,95.20
2022-12-18T21:21:43.859Z,95.20
2022-12-18T21:24:11.735Z,95.10
2022-12-18T21:26:45.799Z,95.10
2022-12-18T21:29:17.631Z,95.00
2022-12-18T21:31:45.375Z,95.00
2022-12-18T21:34:21.670Z,95.00
2022-12-18T21:36:49.383Z,95.10
2022-12-18T21:39:17.073Z,95.10
2022-12-18T21:42:03.872Z,95.10
2022-12-18T21:44:31.032Z,95.10
2022-12-18T21:47:20.824Z,95.40
2022-12-18T21:49:50.478Z,95.10
2022-12-18T21:52:17.606Z,95.20
2022-12-18T21:54:44.730Z,95.20
2022-12-18T21:57:13.313Z,95.20
2022-12-18T21:59:42.362Z,95.20
2022-12-18T22:02:19.818Z,95.50
2022-12-18T22:04:47.619Z,95.20
2022-12-18T22:07:16.957Z,95.20
2022-12-18T22:09:44.120Z,95.20
2022-12-18T22:12:13.236Z,95.10
2022-12-18T22:14:40.311Z,95.10
2022-12-18T22:17:07.368Z,95.00
2022-12-18T22:19:41.051Z,95.60
2022-12-18T22:22:10.059Z,85.40
2022-12-18T22:24:37.164Z,74.90
2022-12-18T22:27:04.258Z,68.10
2022-12-18T22:29:49.812Z,68.70
2022-12-18T22:32:17.811Z,72.10
2022-12-18T22:35:03.087Z,89.00
2022-12-18T22:37:33.201Z,91.70
2022-12-18T22:40:03.274Z,91.80
2022-12-18T22:42:31.569Z,90.80
2022-12-18T22:45:00.148Z,89.40
2022-12-18T22:47:30.170Z,89.20
2022-12-18T22:49:58.524Z,89.00
2022-12-18T22:52:25.853Z,89.70
2022-12-18T22:54:54.077Z,89.30
2022-12-18T22:57:22.756Z,89.30
2022-12-18T22:59:50.457Z,89.40
2022-12-18T23:02:18.696Z,89.90
2022-12-18T23:04:45.952Z,90.10
2022-12-18T23:07:13.154Z,90.20
2022-12-18T23:09:40.302Z,90.50
2022-12-18T23:12:07.856Z,90.60
2022-12-18T23:14:35.185Z,90.60
2022-12-18T23:17:02.231Z,90.70
2022-12-18T23:19:29.267Z,91.00
2022-12-18T23:21:58.575Z,91.10
2022-12-18T23:24:26.065Z,91.30
2022-12-18T23:26:53.179Z,91.30
2022-12-18T23:29:20.639Z,91.40
2022-12-18T23:31:47.742Z,91.60
2022-12-18T23:34:14.881Z,91.60
2022-12-18T23:36:46.446Z,91.80
2022-12-18T23:39:18.800Z,91.80
2022-12-18T23:41:59.862Z,92.00
2022-12-18T23:44:27.207Z,92.10
2022-12-18T23:46:54.619Z,92.10
2022-12-18T23:49:22.297Z,92.10
2022-12-18T23:51:49.359Z,92.20
2022-12-18T23:54:16.438Z,92.20
2022-12-18T23:56:43.654Z,92.30
2022-12-18T23:59:10.792Z,92.40
